Arch Cape, Oregon
Current Conditions -  °F | °C
As of 3:37 AM on Friday 31 Oct 2014 (Local Time) from KAST Reporting Station
Light Rain Light Rain  
Wind Chill: 53°   Ceiling: 900
Heat Index: 53°   Visibility: 6mi
Dew Point: 51°   Wind: 8mph
Humidity: 93%   Direction: 320°NW
Pressure: 29.73"   Gusts: NA
Location:  45.8°N, 123.96°W
Report Text: KAST 311037Z AUTO 32007KT 6SM -RA BR BKN009 OVC017 12/11 A2973 RMK AO2 P0005 T01170106
Loading
Personal Weather Stations






























Interactive Weather Map
Tropical Storm Tracking
New forecast layout! Learn more

10-Day Weather Forecast

Advertisements
Track Severe Weather on mobile